createdAt,value
2022-11-14T00:01:10.210Z,12.50
2022-11-14T00:03:37.090Z,12.50
2022-11-14T00:06:07.921Z,12.50
2022-11-14T00:08:35.141Z,12.50
2022-11-14T00:11:02.065Z,12.40
2022-11-14T00:13:28.786Z,12.30
2022-11-14T00:15:55.519Z,12.40
2022-11-14T00:18:22.650Z,12.40
2022-11-14T00:20:50.968Z,12.40
2022-11-14T00:23:18.620Z,12.30
2022-11-14T00:25:46.189Z,12.30
2022-11-14T00:28:13.220Z,12.30
2022-11-14T00:30:40.031Z,12.20
2022-11-14T00:33:06.890Z,12.30
2022-11-14T00:35:33.590Z,12.20
2022-11-14T00:38:00.844Z,12.20
2022-11-14T00:40:27.514Z,12.10
2022-11-14T00:42:54.758Z,12.20
2022-11-14T00:45:22.083Z,12.10
2022-11-14T00:47:48.825Z,12.10
2022-11-14T00:50:17.066Z,12.20
2022-11-14T00:52:43.796Z,12.20
2022-11-14T00:55:10.560Z,12.20
2022-11-14T00:57:37.322Z,12.20
2022-11-14T01:00:05.456Z,12.20
2022-11-14T01:02:32.410Z,12.30
2022-11-14T01:04:59.152Z,12.20
2022-11-14T01:07:25.881Z,12.20
2022-11-14T01:09:52.504Z,12.20
2022-11-14T01:12:19.245Z,12.10
2022-11-14T01:14:46.076Z,12.00
2022-11-14T01:17:12.737Z,12.00
2022-11-14T01:19:39.579Z,11.90
2022-11-14T01:22:06.790Z,11.90
2022-11-14T01:24:34.391Z,11.90
2022-11-14T01:27:01.525Z,11.90
2022-11-14T01:29:28.739Z,12.00
2022-11-14T01:31:56.191Z,11.90
2022-11-14T01:34:23.290Z,12.00
2022-11-14T01:36:50.078Z,12.00
2022-11-14T01:39:16.927Z,11.90
2022-11-14T01:41:43.603Z,12.00
2022-11-14T01:44:18.146Z,11.90
2022-11-14T01:46:53.707Z,11.90
2022-11-14T01:49:27.249Z,11.80
2022-11-14T01:52:02.269Z,11.90
2022-11-14T01:54:32.884Z,11.90
2022-11-14T01:57:02.835Z,11.90
2022-11-14T01:59:36.458Z,12.00
2022-11-14T02:02:25.515Z,11.90
2022-11-14T02:05:04.172Z,11.80
2022-11-14T02:07:33.645Z,11.80
2022-11-14T02:10:02.990Z,11.80
2022-11-14T02:12:30.240Z,11.70
2022-11-14T02:14:58.886Z,11.70
2022-11-14T02:17:30.829Z,11.70
2022-11-14T02:20:06.856Z,11.60
2022-11-14T02:22:33.564Z,11.70
2022-11-14T02:25:00.407Z,11.80
2022-11-14T02:27:27.418Z,11.80
2022-11-14T02:29:54.069Z,11.80
2022-11-14T02:32:20.941Z,11.80
2022-11-14T02:34:47.858Z,11.70
2022-11-14T02:37:14.552Z,11.80
2022-11-14T02:39:41.416Z,11.70
2022-11-14T02:42:08.378Z,11.70
2022-11-14T02:44:35.092Z,11.70
2022-11-14T02:47:01.887Z,11.60
2022-11-14T02:49:28.718Z,11.50
2022-11-14T02:51:55.427Z,11.50
2022-11-14T02:54:22.093Z,11.50
2022-11-14T02:56:49.048Z,11.50
2022-11-14T02:59:15.690Z,11.60
2022-11-14T03:01:42.422Z,11.80
2022-11-14T03:04:09.285Z,11.90
2022-11-14T03:06:35.953Z,12.00
2022-11-14T03:09:02.640Z,12.00
2022-11-14T03:11:29.696Z,11.80
2022-11-14T03:13:56.374Z,11.80
2022-11-14T03:16:23.237Z,11.80
2022-11-14T03:18:49.973Z,11.70
2022-11-14T03:21:19.956Z,11.70
2022-11-14T03:23:47.017Z,11.70
2022-11-14T03:26:15.298Z,11.60
2022-11-14T03:28:42.797Z,11.60
2022-11-14T03:31:11.798Z,11.60
2022-11-14T03:33:38.613Z,11.60
2022-11-14T03:36:06.410Z,11.70
2022-11-14T03:38:33.460Z,11.80
2022-11-14T03:41:00.863Z,11.70
2022-11-14T03:43:32.225Z,11.70
2022-11-14T03:46:00.536Z,11.60
2022-11-14T03:48:28.562Z,11.60
2022-11-14T03:50:55.605Z,11.60
2022-11-14T03:53:22.881Z,11.60
2022-11-14T03:55:50.305Z,11.50
2022-11-14T03:58:16.953Z,11.50
2022-11-14T04:00:43.736Z,11.40
2022-11-14T04:03:10.537Z,11.40
2022-11-14T04:05:37.299Z,11.40
2022-11-14T04:08:07.411Z,11.50
2022-11-14T04:10:34.387Z,11.50
2022-11-14T04:13:01.079Z,11.50
2022-11-14T04:15:27.732Z,11.50
2022-11-14T04:17:54.440Z,11.40
2022-11-14T04:20:21.189Z,11.50
2022-11-14T04:22:47.994Z,11.50
2022-11-14T04:25:14.896Z,11.60
2022-11-14T04:27:41.617Z,11.60
2022-11-14T04:30:08.875Z,11.50
2022-11-14T04:32:35.561Z,11.50
2022-11-14T04:35:02.243Z,11.50
2022-11-14T04:37:28.923Z,11.50
2022-11-14T04:40:01.065Z,11.50
2022-11-14T04:42:28.170Z,11.50
2022-11-14T04:44:55.003Z,11.40
2022-11-14T04:47:21.854Z,11.50
2022-11-14T04:49:48.516Z,11.40
2022-11-14T04:52:15.235Z,11.50
2022-11-14T04:54:41.911Z,11.50
2022-11-14T04:57:08.594Z,11.50
2022-11-14T04:59:35.338Z,11.50
2022-11-14T05:02:02.068Z,11.50
2022-11-14T05:04:28.790Z,11.60
2022-11-14T05:06:55.505Z,11.60
2022-11-14T05:09:22.341Z,11.50
2022-11-14T05:11:49.075Z,11.40
2022-11-14T05:14:15.748Z,11.40
2022-11-14T05:16:42.531Z,11.40
2022-11-14T05:19:09.214Z,11.50
2022-11-14T05:21:35.983Z,11.50
2022-11-14T05:24:02.695Z,11.50
2022-11-14T05:26:29.418Z,11.40
2022-11-14T05:28:56.125Z,11.40
2022-11-14T05:31:23.020Z,11.50
2022-11-14T05:33:50.359Z,11.50
2022-11-14T05:36:17.566Z,11.60
2022-11-14T05:38:44.606Z,11.70
2022-11-14T05:41:16.931Z,11.70
2022-11-14T05:43:44.281Z,11.60
2022-11-14T05:46:13.895Z,11.60
2022-11-14T05:48:41.111Z,11.60
2022-11-14T05:51:10.543Z,11.60
2022-11-14T05:53:37.477Z,11.60
2022-11-14T05:56:06.897Z,11.70
2022-11-14T05:58:35.001Z,11.60
2022-11-14T06:01:05.725Z,11.60
2022-11-14T06:03:38.221Z,11.70
2022-11-14T06:06:08.155Z,11.60
2022-11-14T06:08:35.731Z,11.70
2022-11-14T06:11:07.779Z,11.70
2022-11-14T06:13:35.234Z,11.70
2022-11-14T06:16:03.589Z,11.60
2022-11-14T06:18:31.727Z,11.70
2022-11-14T06:21:19.422Z,11.70
2022-11-14T06:23:46.854Z,11.70
2022-11-14T06:26:34.066Z,11.70
2022-11-14T06:29:00.851Z,11.70
2022-11-14T06:31:27.991Z,11.70
2022-11-14T06:33:54.928Z,11.70
2022-11-14T06:36:21.644Z,11.80
2022-11-14T06:38:48.415Z,11.80
2022-11-14T06:41:20.777Z,11.80
2022-11-14T06:43:49.729Z,11.90
2022-11-14T06:46:19.303Z,11.90
2022-11-14T06:48:47.552Z,11.80
2022-11-14T06:51:15.661Z,11.80
2022-11-14T06:53:43.078Z,11.80
2022-11-14T06:56:12.548Z,11.70
2022-11-14T06:58:41.780Z,11.80
2022-11-14T07:01:23.110Z,11.80
2022-11-14T07:03:50.424Z,11.90
2022-11-14T07:06:23.190Z,11.90
2022-11-14T07:08:50.334Z,12.00
2022-11-14T07:11:23.412Z,11.90
2022-11-14T07:13:51.716Z,11.90
2022-11-14T07:16:19.379Z,11.90
2022-11-14T07:18:46.298Z,12.00
2022-11-14T07:21:13.426Z,12.00
2022-11-14T07:23:41.320Z,11.90
2022-11-14T07:26:09.826Z,12.00
2022-11-14T07:28:38.075Z,12.10
2022-11-14T07:31:10.500Z,12.10
2022-11-14T07:33:37.176Z,12.10
2022-11-14T07:36:04.335Z,12.20
2022-11-14T07:38:32.981Z,12.10
2022-11-14T07:41:05.354Z,12.10
2022-11-14T07:43:32.312Z,12.10
2022-11-14T07:46:06.063Z,12.10
2022-11-14T07:48:33.141Z,12.10
2022-11-14T07:51:05.397Z,12.20
2022-11-14T07:53:32.160Z,12.40
2022-11-14T07:56:04.512Z,12.60
2022-11-14T07:58:31.497Z,12.60
2022-11-14T08:01:02.240Z,12.50
2022-11-14T08:03:29.295Z,12.60
2022-11-14T08:06:13.527Z,12.70
2022-11-14T08:08:40.319Z,12.80
2022-11-14T08:11:07.638Z,12.90
2022-11-14T08:13:34.470Z,12.80
2022-11-14T08:16:13.267Z,12.80
2022-11-14T08:18:41.090Z,12.70
2022-11-14T08:21:07.796Z,12.70
2022-11-14T08:23:34.771Z,12.80
2022-11-14T08:26:01.551Z,12.80
2022-11-14T08:28:29.239Z,12.80
2022-11-14T08:31:01.636Z,12.80
2022-11-14T08:33:28.519Z,12.80
2022-11-14T08:35:55.760Z,12.70
2022-11-14T08:38:22.511Z,12.70
2022-11-14T08:40:49.448Z,12.70
2022-11-14T08:43:16.096Z,12.80
2022-11-14T08:45:42.846Z,12.70
2022-11-14T08:48:09.914Z,12.80
2022-11-14T08:50:36.630Z,12.70
2022-11-14T08:53:03.371Z,12.60
2022-11-14T08:55:30.091Z,12.70
2022-11-14T08:57:56.735Z,12.60
2022-11-14T09:00:23.589Z,12.70
2022-11-14T09:02:50.366Z,12.60
2022-11-14T09:05:17.325Z,12.70
2022-11-14T09:07:44.525Z,12.70
2022-11-14T09:10:11.210Z,12.70
2022-11-14T09:12:37.957Z,12.80
2022-11-14T09:15:05.118Z,12.80
2022-11-14T09:17:31.850Z,12.80
2022-11-14T09:19:58.478Z,12.70
2022-11-14T09:22:25.219Z,12.80
2022-11-14T09:24:52.703Z,12.80
2022-11-14T09:27:19.444Z,12.90
2022-11-14T09:29:46.182Z,12.70
2022-11-14T09:32:12.882Z,12.70
2022-11-14T09:34:43.035Z,12.70
2022-11-14T09:37:09.856Z,12.70
2022-11-14T09:39:40.456Z,12.80
2022-11-14T09:42:16.996Z,12.80
2022-11-14T09:44:49.437Z,12.80
2022-11-14T09:47:21.559Z,12.80
2022-11-14T09:49:51.401Z,12.80
2022-11-14T09:52:27.380Z,12.70
2022-11-14T09:54:58.322Z,13.00
2022-11-14T09:57:26.044Z,13.00
2022-11-14T09:59:53.148Z,13.00
2022-11-14T10:02:41.325Z,13.10
2022-11-14T10:05:23.860Z,13.20
2022-11-14T10:08:02.378Z,13.10
2022-11-14T10:10:48.078Z,13.20
2022-11-14T10:13:36.865Z,13.20
2022-11-14T10:16:29.519Z,13.10
2022-11-14T10:19:10.801Z,13.20
2022-11-14T10:22:02.830Z,13.20
2022-11-14T10:24:55.957Z,13.30
2022-11-14T10:27:34.940Z,13.40
2022-11-14T10:30:12.252Z,13.40
2022-11-14T10:32:57.260Z,13.50
2022-11-14T10:35:37.624Z,13.60
2022-11-14T10:38:07.623Z,13.50
2022-11-14T10:40:44.466Z,13.70
2022-11-14T10:43:30.037Z,13.80
2022-11-14T10:46:20.885Z,13.90
2022-11-14T10:48:50.319Z,14.00
2022-11-14T10:51:26.522Z,14.10
2022-11-14T10:54:02.421Z,14.20
2022-11-14T10:56:29.980Z,14.10
2022-11-14T10:58:56.655Z,14.10
2022-11-14T11:01:39.813Z,14.10
2022-11-14T11:04:15.121Z,14.00
2022-11-14T11:06:42.055Z,14.10
2022-11-14T11:09:32.246Z,14.00
2022-11-14T11:12:01.927Z,13.90
2022-11-14T11:14:29.743Z,14.10
2022-11-14T11:17:16.671Z,14.20
2022-11-14T11:19:43.429Z,14.30
2022-11-14T11:22:30.471Z,14.20
2022-11-14T11:24:57.209Z,14.30
2022-11-14T11:27:27.993Z,14.30
2022-11-14T11:30:03.906Z,14.30
2022-11-14T11:32:30.702Z,14.20
2022-11-14T11:34:59.208Z,14.20
2022-11-14T11:37:31.377Z,14.30
2022-11-14T11:40:03.143Z,14.40
2022-11-14T11:45:55.627Z,14.40
2022-11-14T11:48:26.627Z,14.20
2022-11-14T11:50:53.360Z,14.30
2022-11-14T11:53:44.614Z,14.30
2022-11-14T11:56:19.354Z,14.50
2022-11-14T11:58:48.072Z,14.40
2022-11-14T12:01:16.093Z,14.40
2022-11-14T12:03:52.770Z,14.30
2022-11-14T12:06:25.384Z,14.40
2022-11-14T12:09:42.490Z,14.50
2022-11-14T12:12:31.378Z,14.50
2022-11-14T12:15:06.164Z,14.40
2022-11-14T12:18:10.679Z,14.50
2022-11-14T12:20:50.824Z,14.60
2022-11-14T12:23:32.091Z,14.70
2022-11-14T12:26:17.591Z,14.70
2022-11-14T12:29:25.888Z,14.80
2022-11-14T12:32:04.585Z,15.00
2022-11-14T12:34:39.335Z,15.20
2022-11-14T12:37:22.875Z,15.30
2022-11-14T12:39:59.352Z,15.30
2022-11-14T12:42:26.327Z,15.40
2022-11-14T12:44:53.211Z,15.40
2022-11-14T12:47:25.800Z,15.40
2022-11-14T12:49:52.789Z,15.40
2022-11-14T12:52:42.369Z,15.60
2022-11-14T12:55:24.322Z,15.70
2022-11-14T12:58:10.819Z,15.70
2022-11-14T13:01:15.254Z,15.40
2022-11-14T13:04:40.090Z,15.40
2022-11-14T13:07:33.854Z,15.20
2022-11-14T13:10:14.326Z,15.20
2022-11-14T13:13:26.245Z,15.10
2022-11-14T13:16:16.744Z,15.10
2022-11-14T13:19:20.252Z,14.90
2022-11-14T13:22:28.711Z,14.80
2022-11-14T13:25:01.549Z,15.00
2022-11-14T13:28:05.234Z,14.80
2022-11-14T13:30:58.778Z,14.80
2022-11-14T13:33:59.146Z,14.70
2022-11-14T13:36:40.352Z,14.60
2022-11-14T13:39:31.648Z,14.50
2022-11-14T13:42:25.670Z,14.70
2022-11-14T13:45:00.698Z,14.70
2022-11-14T13:47:50.794Z,14.70
2022-11-14T13:50:31.018Z,14.70
2022-11-14T13:52:58.578Z,14.70
2022-11-14T13:55:32.715Z,14.70
2022-11-14T13:58:05.456Z,14.80
2022-11-14T14:00:53.664Z,14.80
2022-11-14T14:03:31.595Z,14.80
2022-11-14T14:06:09.269Z,14.70
2022-11-14T14:12:28.736Z,14.70
2022-11-14T14:15:07.071Z,14.70
2022-11-14T14:17:36.843Z,14.60
2022-11-14T14:20:15.269Z,14.50
2022-11-14T14:22:55.855Z,14.50
2022-11-14T14:25:31.350Z,14.30
2022-11-14T14:28:10.822Z,14.30
2022-11-14T14:30:37.612Z,14.30
2022-11-14T14:33:07.234Z,14.20
2022-11-14T14:35:40.437Z,14.10
2022-11-14T14:38:23.649Z,14.10
2022-11-14T14:40:50.564Z,14.10
2022-11-14T14:43:33.481Z,14.10
2022-11-14T14:46:01.589Z,14.10
2022-11-14T14:48:31.916Z,14.20
2022-11-14T14:51:00.585Z,14.20
2022-11-14T14:53:33.604Z,14.20
2022-11-14T14:56:03.167Z,14.20
2022-11-14T14:58:33.382Z,14.20
2022-11-14T15:01:06.231Z,14.20
2022-11-14T15:03:37.698Z,14.20
2022-11-14T15:06:07.665Z,14.10
2022-11-14T15:08:38.936Z,14.10
2022-11-14T15:11:07.002Z,14.10
2022-11-14T15:13:35.209Z,14.10
2022-11-14T15:16:04.225Z,14.10
2022-11-14T15:18:33.159Z,14.00
2022-11-14T15:21:27.471Z,13.80
2022-11-14T15:24:17.096Z,13.70
2022-11-14T15:26:52.128Z,13.70
2022-11-14T15:29:24.186Z,13.70
2022-11-14T15:31:55.411Z,13.60
2022-11-14T15:34:27.253Z,13.60
2022-11-14T15:37:06.272Z,13.60
2022-11-14T15:39:32.893Z,13.50
2022-11-14T15:42:18.134Z,13.50
2022-11-14T15:44:47.008Z,13.50
2022-11-14T15:47:20.850Z,13.40
2022-11-14T15:50:02.403Z,13.40
2022-11-14T15:52:36.360Z,13.30
2022-11-14T15:55:04.488Z,13.40
2022-11-14T15:57:32.391Z,13.20
2022-11-14T15:59:59.127Z,13.20
2022-11-14T16:02:31.851Z,13.20
2022-11-14T16:04:59.488Z,13.10
2022-11-14T16:07:28.003Z,13.10
2022-11-14T16:09:55.294Z,13.10
2022-11-14T16:12:21.970Z,13.10
2022-11-14T16:14:48.822Z,13.20
2022-11-14T16:17:17.574Z,13.20
2022-11-14T16:19:44.599Z,13.10
2022-11-14T16:22:17.690Z,13.00
2022-11-14T16:24:44.501Z,12.90
2022-11-14T16:27:11.190Z,12.90
2022-11-14T16:29:37.849Z,12.90
2022-11-14T16:32:04.618Z,12.80
2022-11-14T16:34:31.241Z,12.90
2022-11-14T16:37:00.038Z,12.90
2022-11-14T16:39:26.931Z,12.90
2022-11-14T16:41:53.692Z,12.90
2022-11-14T16:44:20.484Z,12.90
2022-11-14T16:46:47.301Z,12.90
2022-11-14T16:49:16.329Z,12.90
2022-11-14T16:51:49.054Z,12.90
2022-11-14T16:54:20.334Z,12.90
2022-11-14T16:56:47.980Z,12.90
2022-11-14T16:59:14.733Z,12.90
2022-11-14T17:01:42.039Z,12.90
2022-11-14T17:04:09.135Z,12.90
2022-11-14T17:06:35.821Z,12.90
2022-11-14T17:09:02.889Z,12.90
2022-11-14T17:11:29.774Z,12.90
2022-11-14T17:13:56.852Z,12.90
2022-11-14T17:16:23.606Z,12.80
2022-11-14T17:18:54.823Z,12.80
2022-11-14T17:21:22.209Z,13.10
2022-11-14T17:23:54.632Z,12.80
2022-11-14T17:26:21.950Z,12.70
2022-11-14T17:28:48.710Z,12.60
2022-11-14T17:31:16.174Z,12.60
2022-11-14T17:33:43.125Z,12.50
2022-11-14T17:36:11.339Z,12.50
2022-11-14T17:38:38.391Z,12.50
2022-11-14T17:41:08.321Z,12.50
2022-11-14T17:43:40.011Z,12.60
2022-11-14T17:46:14.129Z,12.60
2022-11-14T17:48:42.373Z,12.60
2022-11-14T17:51:12.293Z,12.60
2022-11-14T17:53:39.469Z,12.50
2022-11-14T17:56:07.940Z,12.50
2022-11-14T17:58:35.125Z,12.50
2022-11-14T18:01:01.888Z,12.40
2022-11-14T18:03:28.649Z,12.40
2022-11-14T18:06:05.912Z,12.40
2022-11-14T18:08:34.322Z,12.30
2022-11-14T18:11:01.995Z,12.20
2022-11-14T18:13:28.752Z,12.30
2022-11-14T18:15:59.843Z,12.20
2022-11-14T18:18:26.480Z,12.20
2022-11-14T18:20:53.270Z,12.20
2022-11-14T18:23:20.185Z,12.30
2022-11-14T18:25:46.938Z,12.30
2022-11-14T18:28:13.623Z,12.20
2022-11-14T18:30:42.055Z,12.30
2022-11-14T18:33:09.442Z,12.30
2022-11-14T18:35:36.112Z,12.20
2022-11-14T18:38:02.813Z,12.30
2022-11-14T18:40:29.446Z,12.20
2022-11-14T18:42:56.179Z,12.20
2022-11-14T18:45:22.905Z,12.20
2022-11-14T18:47:49.562Z,12.20
2022-11-14T18:50:16.253Z,12.20
2022-11-14T18:52:43.150Z,12.20
2022-11-14T18:55:09.876Z,12.20
2022-11-14T18:57:36.599Z,12.20
2022-11-14T19:00:05.352Z,12.20
2022-11-14T19:02:32.108Z,12.20
2022-11-14T19:04:58.803Z,12.10
2022-11-14T19:07:26.169Z,12.10
2022-11-14T19:09:53.113Z,12.10
2022-11-14T19:12:21.927Z,12.10
2022-11-14T19:14:50.540Z,12.10
2022-11-14T19:17:20.867Z,12.20
2022-11-14T19:19:49.320Z,12.10
2022-11-14T19:22:17.140Z,12.10
2022-11-14T19:24:46.594Z,12.10
2022-11-14T19:27:14.099Z,12.10
2022-11-14T19:29:41.000Z,12.10
2022-11-14T19:32:07.957Z,12.00
2022-11-14T19:34:34.699Z,12.00
2022-11-14T19:37:01.573Z,12.00
2022-11-14T19:39:28.660Z,12.00
2022-11-14T19:41:55.378Z,12.00
2022-11-14T19:44:22.455Z,12.00
2022-11-14T19:46:49.299Z,12.00
2022-11-14T19:49:16.082Z,11.90
2022-11-14T19:51:43.492Z,11.80
2022-11-14T19:54:11.027Z,11.80
2022-11-14T19:56:38.086Z,11.80
2022-11-14T19:59:09.531Z,11.80
2022-11-14T20:01:38.112Z,11.80
2022-11-14T20:04:04.973Z,11.80
2022-11-14T20:06:34.238Z,11.80
2022-11-14T20:09:08.743Z,11.80
2022-11-14T20:11:36.130Z,11.70
2022-11-14T20:14:03.191Z,11.70
2022-11-14T20:16:37.275Z,11.60
2022-11-14T20:19:04.604Z,11.50
2022-11-14T20:21:33.632Z,11.60
2022-11-14T20:24:00.523Z,11.60
2022-11-14T20:26:27.635Z,11.50
2022-11-14T20:28:54.772Z,11.50
2022-11-14T20:31:29.814Z,11.50
2022-11-14T20:33:56.588Z,11.60
2022-11-14T20:36:25.190Z,11.70
2022-11-14T20:38:52.992Z,11.70
2022-11-14T20:41:20.799Z,11.70
2022-11-14T20:43:48.123Z,11.60
2022-11-14T20:46:17.318Z,11.60
2022-11-14T20:48:44.768Z,11.60
2022-11-14T20:51:25.550Z,11.50
2022-11-14T20:53:54.748Z,11.60
2022-11-14T20:56:22.501Z,11.60
2022-11-14T20:58:52.075Z,11.60
2022-11-14T21:01:19.161Z,11.60
2022-11-14T21:03:46.876Z,11.60
2022-11-14T21:06:14.990Z,11.60
2022-11-14T21:08:42.864Z,11.60
2022-11-14T21:11:14.024Z,11.60
2022-11-14T21:13:56.167Z,11.60
2022-11-14T21:16:30.394Z,11.60
2022-11-14T21:18:57.762Z,11.60
2022-11-14T21:21:27.340Z,11.60
2022-11-14T21:23:55.114Z,11.50
2022-11-14T21:26:27.535Z,11.30
2022-11-14T21:29:00.072Z,11.40
2022-11-14T21:31:38.453Z,11.40
2022-11-14T21:34:08.048Z,11.50
2022-11-14T21:36:51.249Z,11.40
2022-11-14T21:39:18.099Z,11.40
2022-11-14T21:41:48.301Z,11.40
2022-11-14T21:44:16.886Z,11.40
2022-11-14T21:46:47.059Z,11.30
2022-11-14T21:49:14.249Z,11.30
2022-11-14T21:51:41.144Z,11.30
2022-11-14T21:54:09.081Z,11.30
2022-11-14T21:56:37.132Z,11.30
2022-11-14T21:59:14.041Z,11.30
2022-11-14T22:02:04.715Z,11.40
2022-11-14T22:04:32.063Z,11.40
2022-11-14T22:07:01.074Z,11.40
2022-11-14T22:09:28.627Z,11.20
2022-11-14T22:11:56.510Z,11.20
2022-11-14T22:14:23.685Z,11.10
2022-11-14T22:16:50.471Z,11.10
2022-11-14T22:19:17.201Z,11.00
2022-11-14T22:21:43.909Z,10.90
2022-11-14T22:24:10.634Z,10.90
2022-11-14T22:26:40.005Z,10.80
2022-11-14T22:29:07.918Z,10.90
2022-11-14T22:31:34.705Z,10.80
2022-11-14T22:34:01.755Z,10.80
2022-11-14T22:36:28.538Z,10.80
2022-11-14T22:38:56.684Z,10.70
2022-11-14T22:41:34.000Z,10.60
2022-11-14T22:44:01.471Z,10.70
2022-11-14T22:46:29.765Z,10.70
2022-11-14T22:48:56.707Z,10.70
2022-11-14T22:51:26.050Z,10.60
2022-11-14T22:53:54.535Z,10.50
2022-11-14T22:56:23.805Z,10.50
2022-11-14T22:58:50.588Z,10.40
2022-11-14T23:01:31.836Z,10.40
2022-11-14T23:04:05.818Z,10.40
2022-11-14T23:06:34.165Z,10.40
2022-11-14T23:09:02.396Z,10.30
2022-11-14T23:11:31.559Z,10.20
2022-11-14T23:13:59.928Z,10.10
2022-11-14T23:16:28.910Z,10.00
2022-11-14T23:18:58.247Z,10.10
2022-11-14T23:21:30.616Z,10.00
2022-11-14T23:24:00.774Z,9.90
2022-11-14T23:26:28.844Z,9.60
2022-11-14T23:28:56.164Z,9.70
2022-11-14T23:31:23.765Z,9.70
2022-11-14T23:33:53.109Z,9.70
2022-11-14T23:36:20.633Z,9.60
2022-11-14T23:38:47.654Z,9.60
2022-11-14T23:41:18.041Z,9.60
2022-11-14T23:43:45.608Z,9.60
2022-11-14T23:46:12.677Z,9.50
2022-11-14T23:48:39.502Z,9.50
2022-11-14T23:51:06.609Z,9.50
2022-11-14T23:53:33.588Z,9.60
2022-11-14T23:56:01.938Z,9.50
2022-11-14T23:58:29.709Z,9.60
